createdAt,value
2018-05-16T00:00:37.882Z,7.82
2018-05-16T00:03:04.527Z,7.95
2018-05-16T00:05:31.143Z,7.00
2018-05-16T00:07:57.808Z,8.63
2018-05-16T00:10:24.451Z,7.95
2018-05-16T00:12:51.091Z,8.40
2018-05-16T00:15:17.734Z,8.45
2018-05-16T00:17:44.383Z,8.25
2018-05-16T00:20:11.039Z,7.22
2018-05-16T00:22:37.679Z,7.32
2018-05-16T00:25:04.332Z,8.70
2018-05-16T00:27:30.979Z,8.80
2018-05-16T00:29:57.600Z,9.95
2018-05-16T00:32:24.358Z,7.90
2018-05-16T00:34:51.027Z,8.55
2018-05-16T00:37:17.659Z,8.82
2018-05-16T00:39:44.347Z,7.90
2018-05-16T00:42:11.011Z,8.40
2018-05-16T00:44:37.649Z,8.88
2018-05-16T00:47:04.328Z,9.50
2018-05-16T00:49:31.005Z,9.00
2018-05-16T00:51:57.800Z,9.35
2018-05-16T00:54:24.426Z,8.73
2018-05-16T00:56:51.122Z,9.23
2018-05-16T00:59:17.725Z,8.27
2018-05-16T01:01:44.512Z,9.52
2018-05-16T01:04:11.166Z,8.57
2018-05-16T01:06:37.839Z,9.00
2018-05-16T01:09:05.635Z,9.60
2018-05-16T01:11:32.278Z,8.80
2018-05-16T01:13:58.898Z,9.07
2018-05-16T01:16:25.548Z,9.75
2018-05-16T01:18:52.174Z,9.57
2018-05-16T01:21:18.833Z,10.20
2018-05-16T01:23:45.722Z,9.50
2018-05-16T01:26:12.367Z,11.00
2018-05-16T01:28:39.019Z,9.00
2018-05-16T01:31:05.650Z,10.00
2018-05-16T01:33:32.302Z,9.65
2018-05-16T01:35:58.921Z,9.07
2018-05-16T01:38:25.584Z,10.32
2018-05-16T01:40:52.224Z,8.88
2018-05-16T01:43:18.887Z,10.45
2018-05-16T01:45:49.672Z,9.40
2018-05-16T01:48:16.346Z,10.00
2018-05-16T01:50:43.005Z,9.88
2018-05-16T01:53:09.634Z,10.43
2018-05-16T01:55:36.320Z,8.35
2018-05-16T01:58:02.949Z,10.32
2018-05-16T02:00:29.590Z,10.38
2018-05-16T02:02:56.226Z,11.68
2018-05-16T02:05:22.866Z,11.68
2018-05-16T02:07:49.552Z,10.10
2018-05-16T02:10:16.287Z,10.40
2018-05-16T02:12:42.959Z,12.52
2018-05-16T02:15:09.640Z,11.25
2018-05-16T02:17:36.285Z,9.63
2018-05-16T02:20:02.971Z,9.93
2018-05-16T02:22:29.626Z,11.07
2018-05-16T02:24:56.259Z,10.60
2018-05-16T02:27:22.913Z,11.30
2018-05-16T02:29:49.871Z,10.50
2018-05-16T02:32:16.522Z,10.05
2018-05-16T02:34:43.146Z,9.55
2018-05-16T02:37:09.794Z,9.48
2018-05-16T02:39:36.434Z,11.15
2018-05-16T02:42:03.118Z,9.95
2018-05-16T02:44:29.766Z,11.35
2018-05-16T02:46:56.596Z,11.32
2018-05-16T02:49:23.270Z,10.52
2018-05-16T02:51:49.905Z,9.25
2018-05-16T02:54:16.582Z,9.60
2018-05-16T02:56:43.259Z,11.32
2018-05-16T02:59:09.956Z,10.75
2018-05-16T03:01:36.594Z,10.48
2018-05-16T03:04:03.226Z,10.38
2018-05-16T03:06:29.881Z,10.15
2018-05-16T03:08:56.510Z,10.80
2018-05-16T03:11:23.158Z,11.10
2018-05-16T03:13:49.795Z,10.18
2018-05-16T03:16:16.460Z,9.75
2018-05-16T03:18:43.097Z,10.90
2018-05-16T03:21:09.788Z,10.40
2018-05-16T03:23:36.483Z,11.07
2018-05-16T03:26:03.154Z,12.90
2018-05-16T03:28:29.858Z,12.25
2018-05-16T03:30:56.638Z,10.65
2018-05-16T03:33:23.266Z,11.40
2018-05-16T03:35:49.941Z,11.43
2018-05-16T03:38:16.571Z,10.65
2018-05-16T03:40:43.831Z,11.45
2018-05-16T03:43:10.475Z,12.65
2018-05-16T03:45:37.123Z,11.55
2018-05-16T03:48:03.771Z,10.90
2018-05-16T03:50:30.430Z,10.82
2018-05-16T03:52:57.242Z,12.30
2018-05-16T03:55:23.903Z,13.85
2018-05-16T03:58:08.301Z,12.30
2018-05-16T04:00:40.783Z,11.45
2018-05-16T04:03:13.416Z,12.37
2018-05-16T04:05:40.039Z,12.85
2018-05-16T04:08:06.709Z,13.57
2018-05-16T04:10:33.372Z,13.75
2018-05-16T04:13:00.363Z,13.43
2018-05-16T04:15:27.012Z,12.95
2018-05-16T04:17:53.658Z,12.70
2018-05-16T04:20:20.299Z,12.98
2018-05-16T04:22:47.011Z,12.23
2018-05-16T04:25:14.426Z,13.62
2018-05-16T04:27:41.063Z,13.60
2018-05-16T04:30:07.734Z,13.50
2018-05-16T04:32:34.572Z,12.57
2018-05-16T04:35:01.376Z,13.23
2018-05-16T04:37:28.059Z,14.43
2018-05-16T04:39:54.700Z,13.85
2018-05-16T04:42:21.341Z,13.35
2018-05-16T04:44:47.987Z,11.48
2018-05-16T04:47:14.652Z,11.93
2018-05-16T04:49:41.324Z,12.25
2018-05-16T04:52:07.970Z,11.85
2018-05-16T04:54:34.663Z,12.20
2018-05-16T04:57:05.342Z,11.75
2018-05-16T04:59:32.015Z,12.13
2018-05-16T05:01:58.644Z,12.70
2018-05-16T05:04:25.354Z,11.55
2018-05-16T05:06:51.987Z,12.48
2018-05-16T05:09:18.635Z,11.85
2018-05-16T05:11:45.312Z,11.10
2018-05-16T05:14:11.982Z,11.77
2018-05-16T05:16:39.162Z,12.68
2018-05-16T05:19:06.063Z,12.50
2018-05-16T05:21:32.726Z,11.20
2018-05-16T05:23:59.393Z,11.70
2018-05-16T05:26:26.042Z,11.65
2018-05-16T05:28:52.678Z,11.20
2018-05-16T05:31:19.318Z,12.32
2018-05-16T05:33:45.975Z,11.38
2018-05-16T05:36:12.639Z,12.20
2018-05-16T05:38:39.290Z,13.60
2018-05-16T05:41:05.932Z,12.48
2018-05-16T05:43:32.583Z,12.00
2018-05-16T05:45:59.213Z,12.10
2018-05-16T05:48:25.903Z,12.02
2018-05-16T05:50:52.540Z,14.02
2018-05-16T05:53:19.159Z,12.25
2018-05-16T05:55:46.507Z,12.48
2018-05-16T05:58:13.159Z,13.60
2018-05-16T06:00:39.848Z,12.20
2018-05-16T06:03:06.483Z,12.32
2018-05-16T06:05:33.139Z,13.30
2018-05-16T06:07:59.760Z,12.02
2018-05-16T06:10:26.424Z,11.43
2018-05-16T06:12:53.059Z,11.02
2018-05-16T06:15:19.718Z,11.30
2018-05-16T06:17:46.399Z,10.75
2018-05-16T06:20:13.023Z,9.77
2018-05-16T06:22:39.819Z,10.05
2018-05-16T06:25:06.494Z,11.10
2018-05-16T06:27:33.141Z,10.30
2018-05-16T06:29:59.770Z,9.77
2018-05-16T06:32:26.424Z,9.27
2018-05-16T06:34:53.046Z,9.90
2018-05-16T06:37:19.687Z,10.57
2018-05-16T06:39:46.347Z,10.07
2018-05-16T06:42:13.246Z,9.00
2018-05-16T06:44:39.925Z,10.23
2018-05-16T06:47:06.553Z,10.10
2018-05-16T06:49:33.236Z,10.07
2018-05-16T06:51:59.867Z,10.40
2018-05-16T06:54:26.627Z,11.27
2018-05-16T06:56:53.267Z,10.90
2018-05-16T06:59:19.944Z,12.57
2018-05-16T07:01:46.607Z,11.40
2018-05-16T07:04:13.495Z,12.27
2018-05-16T07:06:40.113Z,12.10
2018-05-16T07:09:06.765Z,13.03
2018-05-16T07:11:33.396Z,11.00
2018-05-16T07:14:00.071Z,13.18
2018-05-16T07:16:26.703Z,12.80
2018-05-16T07:18:53.372Z,12.00
2018-05-16T07:21:20.052Z,12.15
2018-05-16T07:23:46.745Z,13.98
2018-05-16T07:26:13.376Z,14.23
2018-05-16T07:28:40.025Z,12.90
2018-05-16T07:31:06.712Z,13.32
2018-05-16T07:33:33.339Z,13.27
2018-05-16T07:36:00.225Z,13.35
2018-05-16T07:38:26.883Z,12.93
2018-05-16T07:40:53.520Z,13.80
2018-05-16T07:43:20.198Z,13.17
2018-05-16T07:45:46.815Z,14.03
2018-05-16T07:48:13.470Z,13.88
2018-05-16T07:50:40.095Z,13.53
2018-05-16T07:53:06.763Z,13.48
2018-05-16T07:55:33.451Z,13.30
2018-05-16T07:58:00.143Z,13.05
2018-05-16T08:00:26.800Z,13.30
2018-05-16T08:02:53.452Z,13.75
2018-05-16T08:05:20.349Z,13.05
2018-05-16T08:07:47.018Z,12.75
2018-05-16T08:10:13.664Z,14.27
2018-05-16T08:12:40.315Z,14.10
2018-05-16T08:15:06.945Z,13.43
2018-05-16T08:17:33.599Z,13.45
2018-05-16T08:20:00.295Z,13.68
2018-05-16T08:22:26.948Z,11.05
2018-05-16T08:24:53.590Z,13.57
2018-05-16T08:27:20.354Z,14.30
2018-05-16T08:29:46.995Z,13.60
2018-05-16T08:32:13.677Z,12.63
2018-05-16T08:34:40.951Z,13.57
2018-05-16T08:37:07.623Z,12.85
2018-05-16T08:39:34.266Z,12.77
2018-05-16T08:42:00.885Z,13.57
2018-05-16T08:44:27.556Z,13.13
2018-05-16T08:46:54.269Z,12.32
2018-05-16T08:49:21.763Z,14.10
2018-05-16T08:51:48.544Z,13.20
2018-05-16T08:54:15.671Z,13.20
2018-05-16T09:06:27.338Z,12.90
2018-05-16T09:08:57.891Z,12.40
2018-05-16T09:11:24.679Z,12.60
2018-05-16T09:13:51.359Z,12.07
2018-05-16T09:16:18.027Z,11.85
2018-05-16T09:18:45.495Z,13.18
2018-05-16T09:21:12.163Z,12.57
2018-05-16T09:23:38.819Z,11.12
2018-05-16T09:26:05.514Z,12.70
2018-05-16T09:28:32.168Z,12.80
2018-05-16T09:30:58.828Z,12.23
2018-05-16T09:33:25.711Z,11.80
2018-05-16T09:35:52.398Z,13.90
2018-05-16T09:38:23.360Z,13.27
2018-05-16T09:40:50.068Z,11.83
2018-05-16T09:43:17.347Z,13.15
2018-05-16T09:45:44.071Z,13.37
2018-05-16T09:48:10.636Z,12.23
2018-05-16T09:50:37.649Z,13.27
2018-05-16T09:53:04.328Z,11.73
2018-05-16T09:55:34.737Z,12.80
2018-05-16T09:58:01.424Z,13.27
2018-05-16T10:00:32.787Z,13.40
2018-05-16T10:03:00.317Z,13.25
2018-05-16T10:05:26.978Z,14.43
2018-05-16T10:07:53.751Z,12.50
2018-05-16T10:10:20.388Z,13.00
2018-05-16T10:12:47.035Z,13.67
2018-05-16T10:15:13.695Z,13.40
2018-05-16T10:17:40.336Z,12.03
2018-05-16T10:20:06.993Z,13.50
2018-05-16T10:22:33.709Z,12.37
2018-05-16T10:25:00.360Z,13.63
2018-05-16T10:27:27.044Z,13.30
2018-05-16T10:29:53.692Z,14.80
2018-05-16T10:32:20.350Z,14.10
2018-05-16T10:34:47.009Z,14.53
2018-05-16T10:37:14.138Z,15.48
2018-05-16T10:39:40.781Z,14.27
2018-05-16T10:42:07.430Z,14.37
2018-05-16T10:44:34.119Z,15.10
2018-05-16T10:47:01.221Z,16.03
2018-05-16T10:49:27.879Z,14.63
2018-05-16T10:51:54.526Z,16.93
2018-05-16T10:54:21.327Z,15.33
2018-05-16T10:56:47.989Z,16.98
2018-05-16T10:59:14.676Z,16.10
2018-05-16T11:01:41.374Z,17.30
2018-05-16T11:04:08.030Z,17.20
2018-05-16T11:06:34.730Z,17.33
2018-05-16T11:09:01.398Z,17.00
2018-05-16T11:11:28.072Z,16.23
2018-05-16T11:13:55.380Z,14.85
2018-05-16T11:16:22.028Z,16.80
2018-05-16T11:18:48.702Z,16.23
2018-05-16T11:21:15.431Z,17.85
2018-05-16T11:23:42.035Z,16.50
2018-05-16T11:26:08.738Z,17.98
2018-05-16T11:28:35.596Z,18.35
2018-05-16T11:31:02.261Z,20.15
2018-05-16T11:33:28.979Z,18.75
2018-05-16T11:35:55.655Z,19.27
2018-05-16T11:38:22.309Z,17.80
2018-05-16T11:40:49.045Z,19.50
2018-05-16T11:43:15.702Z,19.08
2018-05-16T11:45:42.388Z,19.85
2018-05-16T11:48:09.042Z,19.20
2018-05-16T11:50:35.713Z,18.73
2018-05-16T11:53:02.376Z,20.48
2018-05-16T11:55:29.021Z,20.35
2018-05-16T11:57:55.860Z,19.85
2018-05-16T12:00:22.656Z,21.77
2018-05-16T12:02:49.318Z,21.08
2018-05-16T12:05:15.932Z,21.65
2018-05-16T12:07:42.593Z,22.13
2018-05-16T12:10:09.240Z,20.80
2018-05-16T12:12:35.870Z,19.67
2018-05-16T12:15:02.557Z,22.25
2018-05-16T12:17:29.230Z,21.90
2018-05-16T12:19:55.907Z,21.75
2018-05-16T12:22:22.607Z,22.20
2018-05-16T12:24:49.238Z,22.00
2018-05-16T12:27:15.918Z,22.42
2018-05-16T12:29:42.588Z,21.80
2018-05-16T12:32:09.251Z,23.20
2018-05-16T12:34:35.880Z,21.58
2018-05-16T12:37:02.558Z,22.10
2018-05-16T12:39:29.200Z,24.43
2018-05-16T12:41:55.860Z,22.83
2018-05-16T12:44:22.534Z,22.40
2018-05-16T12:46:49.178Z,22.57
2018-05-16T12:49:15.840Z,21.23
2018-05-16T12:51:42.579Z,22.62
2018-05-16T12:54:09.228Z,21.37
2018-05-16T12:56:35.873Z,23.83
2018-05-16T12:59:02.530Z,23.73
2018-05-16T13:01:29.290Z,23.62
2018-05-16T13:03:55.905Z,23.40
2018-05-16T13:06:22.544Z,24.85
2018-05-16T13:08:49.187Z,22.97
2018-05-16T13:11:15.829Z,21.12
2018-05-16T13:13:42.486Z,24.27
2018-05-16T13:16:09.107Z,25.17
2018-05-16T13:18:35.766Z,23.13
2018-05-16T13:21:02.404Z,24.27
2018-05-16T13:23:29.039Z,23.67
2018-05-16T13:25:55.685Z,23.07
2018-05-16T13:28:22.324Z,21.63
2018-05-16T13:30:48.979Z,20.65
2018-05-16T13:33:15.620Z,22.43
2018-05-16T13:35:42.356Z,21.27
2018-05-16T13:38:09.015Z,20.37
2018-05-16T13:40:35.656Z,22.27
2018-05-16T13:43:02.312Z,20.05
2018-05-16T13:45:28.999Z,21.70
2018-05-16T13:47:55.656Z,20.80
2018-05-16T13:50:22.320Z,22.00
2018-05-16T13:52:49.006Z,22.10
2018-05-16T13:55:15.629Z,23.07
2018-05-16T13:57:42.289Z,23.50
2018-05-16T14:00:08.987Z,22.85
2018-05-16T14:02:35.596Z,23.13
2018-05-16T14:05:02.249Z,22.50
2018-05-16T14:07:28.936Z,23.40
2018-05-16T14:09:55.562Z,21.27
2018-05-16T14:12:22.215Z,22.80
2018-05-16T14:14:49.277Z,21.77
2018-05-16T14:17:16.017Z,22.30
2018-05-16T14:19:42.700Z,23.40
2018-05-16T14:22:09.465Z,23.00
2018-05-16T14:24:36.125Z,23.27
2018-05-16T14:27:02.785Z,22.33
2018-05-16T14:29:29.572Z,22.03
2018-05-16T14:31:56.256Z,22.25
2018-05-16T14:34:22.944Z,23.70
2018-05-16T14:36:49.609Z,21.42
2018-05-16T14:39:16.273Z,23.30
2018-05-16T14:41:42.937Z,23.25
2018-05-16T14:44:09.632Z,23.83
2018-05-16T14:46:36.271Z,22.67
2018-05-16T14:49:02.932Z,21.62
2018-05-16T14:51:29.629Z,20.70
2018-05-16T14:53:56.315Z,24.48
2018-05-16T14:56:23.035Z,24.37
2018-05-16T14:58:49.719Z,25.85
2018-05-16T15:01:16.414Z,23.52
2018-05-16T15:03:43.097Z,25.60
2018-05-16T15:06:09.794Z,25.75
2018-05-16T15:08:36.415Z,26.83
2018-05-16T15:11:03.111Z,24.80
2018-05-16T15:13:29.788Z,28.15
2018-05-16T15:15:56.469Z,26.17
2018-05-16T15:18:23.136Z,27.05
2018-05-16T15:20:49.854Z,24.20
2018-05-16T15:23:16.513Z,23.87
2018-05-16T15:25:43.233Z,25.58
2018-05-16T15:28:09.886Z,24.10
2018-05-16T15:30:36.565Z,24.30
2018-05-16T15:33:03.347Z,27.48
2018-05-16T15:35:30.017Z,25.62
2018-05-16T15:37:56.756Z,26.77
2018-05-16T15:40:23.438Z,27.08
2018-05-16T15:42:50.138Z,26.65
2018-05-16T15:45:16.807Z,28.95
2018-05-16T15:47:43.491Z,26.10
2018-05-16T15:50:10.179Z,27.00
2018-05-16T15:52:36.864Z,26.75
2018-05-16T15:55:03.520Z,25.83
2018-05-16T15:57:30.188Z,25.45
2018-05-16T15:59:56.865Z,26.67
2018-05-16T16:02:23.648Z,25.42
2018-05-16T16:04:50.315Z,26.15
2018-05-16T16:07:17.005Z,26.50
2018-05-16T16:09:43.716Z,27.08
2018-05-16T16:12:10.421Z,26.20
2018-05-16T16:14:37.065Z,25.62
2018-05-16T16:17:03.729Z,26.62
2018-05-16T16:19:30.365Z,26.67
2018-05-16T16:21:57.053Z,27.73
2018-05-16T16:24:23.684Z,26.75
2018-05-16T16:26:50.399Z,24.77
2018-05-16T16:29:21.081Z,26.23
2018-05-16T16:31:47.849Z,26.23
2018-05-16T16:36:47.568Z,27.45
2018-05-16T16:39:14.285Z,24.75
2018-05-16T16:41:40.957Z,21.92
2018-05-16T16:44:07.662Z,23.62
2018-05-16T16:46:34.317Z,25.80
2018-05-16T16:49:01.193Z,26.70
2018-05-16T16:51:27.901Z,23.25
2018-05-16T16:53:54.636Z,24.02
2018-05-16T16:56:21.474Z,22.87
2018-05-16T16:58:48.128Z,24.08
2018-05-16T17:01:14.798Z,22.23
2018-05-16T17:03:41.448Z,19.27
2018-05-16T17:06:08.151Z,19.62
2018-05-16T17:08:34.887Z,14.10
2018-05-16T17:11:01.595Z,12.73
2018-05-16T17:13:28.241Z,15.48
2018-05-16T17:15:54.986Z,15.40
2018-05-16T17:18:21.630Z,16.95
2018-05-16T17:30:33.300Z,12.25
2018-05-16T17:32:59.985Z,12.37
2018-05-16T17:35:26.707Z,11.65
2018-05-16T17:37:53.405Z,11.20
2018-05-16T17:40:20.080Z,10.75
2018-05-16T17:42:47.380Z,12.82
2018-05-16T17:45:14.916Z,12.35
2018-05-16T17:47:42.217Z,12.30
2018-05-16T17:50:08.891Z,12.65
2018-05-16T17:52:35.635Z,11.70
2018-05-16T17:55:02.319Z,13.55
2018-05-16T17:57:28.977Z,13.43
2018-05-16T17:59:56.905Z,12.80
2018-05-16T18:02:23.576Z,12.88
2018-05-16T18:04:50.285Z,12.43
2018-05-16T18:07:16.984Z,12.20
2018-05-16T18:09:44.279Z,11.38
2018-05-16T18:12:11.047Z,12.40
2018-05-16T18:14:52.622Z,12.93
2018-05-16T18:17:22.946Z,13.40
2018-05-16T18:19:49.614Z,12.10
2018-05-16T18:22:16.376Z,11.80
2018-05-16T18:24:44.027Z,12.75
2018-05-16T18:27:11.664Z,13.48
2018-05-16T18:29:38.482Z,13.50
2018-05-16T18:32:05.304Z,12.75
2018-05-16T18:34:31.991Z,12.70
2018-05-16T18:36:58.663Z,11.82
2018-05-16T18:39:26.011Z,13.45
2018-05-16T18:41:52.717Z,15.10
2018-05-16T18:44:19.492Z,14.45
2018-05-16T18:46:46.213Z,13.50
2018-05-16T18:49:12.908Z,14.15
2018-05-16T18:51:39.553Z,12.95
2018-05-16T18:54:06.263Z,13.35
2018-05-16T18:56:32.980Z,13.43
2018-05-16T18:59:03.498Z,13.30
2018-05-16T19:01:30.211Z,13.20
2018-05-16T19:03:57.254Z,12.75
2018-05-16T19:06:24.033Z,13.77
2018-05-16T19:08:50.919Z,13.55
2018-05-16T19:11:17.518Z,13.57
2018-05-16T19:13:45.048Z,12.25
2018-05-16T19:16:11.719Z,13.50
2018-05-16T19:18:42.251Z,12.98
2018-05-16T19:21:09.000Z,13.93
2018-05-16T19:23:35.757Z,12.70
2018-05-16T19:35:47.499Z,13.70
2018-05-16T19:38:14.269Z,12.23
2018-05-16T19:40:41.014Z,11.82
2018-05-16T19:43:07.744Z,11.07
2018-05-16T19:45:34.534Z,12.70
2018-05-16T19:48:01.239Z,10.77
2018-05-16T19:50:27.940Z,10.05
2018-05-16T19:52:54.751Z,11.68
2018-05-16T19:55:21.382Z,9.98
2018-05-16T19:57:51.990Z,9.32
2018-05-16T20:00:18.910Z,9.40
2018-05-16T20:02:45.645Z,10.15
2018-05-16T20:05:12.342Z,9.20
2018-05-16T20:07:38.999Z,9.23
2018-05-16T20:10:06.714Z,9.00
2018-05-16T20:12:33.437Z,8.40
2018-05-16T20:15:00.110Z,9.73
2018-05-16T20:17:26.879Z,8.95
2018-05-16T20:19:53.596Z,9.20
2018-05-16T20:22:20.459Z,8.43
2018-05-16T20:24:51.221Z,9.30
2018-05-16T20:27:17.899Z,10.77
2018-05-16T20:29:45.457Z,9.30
2018-05-16T20:32:12.137Z,9.55
2018-05-16T20:34:38.782Z,8.20
2018-05-16T20:37:05.799Z,8.30
2018-05-16T20:39:32.463Z,9.20
2018-05-16T20:41:59.144Z,10.45
2018-05-16T20:44:25.999Z,10.35
2018-05-16T20:46:52.684Z,10.55
2018-05-16T20:49:20.011Z,9.05
2018-05-16T20:51:50.868Z,9.77
2018-05-16T20:54:21.858Z,10.02
2018-05-16T20:56:48.547Z,8.95
2018-05-16T20:59:15.469Z,10.50
2018-05-16T21:01:42.197Z,8.82
2018-05-16T21:04:08.910Z,9.95
2018-05-16T21:06:35.701Z,10.50
2018-05-16T21:09:10.449Z,10.55
2018-05-16T21:11:37.102Z,8.07
2018-05-16T21:14:03.747Z,9.40
2018-05-16T21:16:30.403Z,9.90
2018-05-16T21:18:57.075Z,9.63
2018-05-16T21:21:27.557Z,10.52
2018-05-16T21:23:54.222Z,9.38
2018-05-16T21:26:20.914Z,10.25
2018-05-16T21:28:48.608Z,8.35
2018-05-16T21:31:15.297Z,8.65
2018-05-16T21:33:42.018Z,8.60
2018-05-16T21:36:08.741Z,8.18
2018-05-16T21:38:35.402Z,8.50
2018-05-16T21:41:02.059Z,8.32
2018-05-16T21:43:28.746Z,8.85
2018-05-16T21:45:55.359Z,9.13
2018-05-16T21:48:26.926Z,7.45
2018-05-16T21:50:53.559Z,8.10
2018-05-16T21:53:20.197Z,7.30
2018-05-16T21:55:46.891Z,7.95
2018-05-16T21:58:13.551Z,7.70
2018-05-16T22:00:40.196Z,7.78
2018-05-16T22:03:06.872Z,7.82
2018-05-16T22:05:33.552Z,7.82
2018-05-16T22:08:00.180Z,7.40
2018-05-16T22:10:26.859Z,7.47
2018-05-16T22:12:57.476Z,8.15
2018-05-16T22:15:24.110Z,8.75
2018-05-16T22:17:54.751Z,8.75
2018-05-16T22:20:21.390Z,8.00
2018-05-16T22:22:51.814Z,8.00
2018-05-16T22:25:18.479Z,8.30
2018-05-16T22:27:45.188Z,7.35
2018-05-16T22:30:11.439Z,7.15
2018-05-16T22:32:43.995Z,7.62
2018-05-16T22:35:16.370Z,7.18
2018-05-16T22:37:48.921Z,6.20
2018-05-16T22:40:21.351Z,7.50
2018-05-16T22:42:47.637Z,6.70
2018-05-16T22:45:20.115Z,6.75
2018-05-16T22:47:47.482Z,7.45
2018-05-16T22:50:14.117Z,6.28
2018-05-16T22:52:40.820Z,6.93
2018-05-16T22:55:07.516Z,6.32
2018-05-16T22:57:34.187Z,6.03
2018-05-16T23:00:00.830Z,6.03
2018-05-16T23:02:27.450Z,6.22
2018-05-16T23:04:54.111Z,5.30
2018-05-16T23:07:20.952Z,5.55
2018-05-16T23:09:48.478Z,6.07
2018-05-16T23:12:15.101Z,8.57
2018-05-16T23:14:41.821Z,5.70
2018-05-16T23:17:08.476Z,6.15
2018-05-16T23:19:35.167Z,6.05
2018-05-16T23:22:01.827Z,4.70
2018-05-16T23:24:29.143Z,5.95
2018-05-16T23:26:55.790Z,5.68
2018-05-16T23:29:22.434Z,4.82
2018-05-16T23:31:49.088Z,4.82
2018-05-16T23:34:15.731Z,4.75
2018-05-16T23:36:42.423Z,4.62
2018-05-16T23:39:09.125Z,4.87
2018-05-16T23:41:39.561Z,5.22
2018-05-16T23:44:06.251Z,5.12
2018-05-16T23:46:32.871Z,6.03
2018-05-16T23:48:59.539Z,5.03
2018-05-16T23:51:26.252Z,5.72
2018-05-16T23:53:52.869Z,5.28
2018-05-16T23:56:20.435Z,5.72
2018-05-16T23:58:47.783Z,5.12
